sensor_id;sensor_type;location;lat;lon;timestamp;P1;durP1;ratioP1;P2;durP2;ratioP2
57297;SDS011;43147;50.972;18.210;2022-09-14T00:00:59;16.80;;;15.00;;
57297;SDS011;43147;50.972;18.210;2022-09-14T00:03:25;17.10;;;14.90;;
57297;SDS011;43147;50.972;18.210;2022-09-14T00:05:50;17.50;;;14.50;;
57297;SDS011;43147;50.972;18.210;2022-09-14T00:08:16;17.80;;;16.00;;
57297;SDS011;43147;50.972;18.210;2022-09-14T00:10:42;19.80;;;15.20;;
57297;SDS011;43147;50.972;18.210;2022-09-14T00:13:10;18.70;;;16.70;;
57297;SDS011;43147;50.972;18.210;2022-09-14T00:15:37;17.70;;;15.80;;
57297;SDS011;43147;50.972;18.210;2022-09-14T00:18:05;18.20;;;16.40;;
57297;SDS011;43147;50.972;18.210;2022-09-14T00:20:32;18.20;;;16.30;;
57297;SDS011;43147;50.972;18.210;2022-09-14T00:22:58;17.60;;;15.80;;
57297;SDS011;43147;50.972;18.210;2022-09-14T00:25:23;16.60;;;15.00;;
57297;SDS011;43147;50.972;18.210;2022-09-14T00:27:51;16.10;;;14.60;;
57297;SDS011;43147;50.972;18.210;2022-09-14T00:30:17;16.80;;;15.10;;
57297;SDS011;43147;50.972;18.210;2022-09-14T00:32:43;15.60;;;14.10;;
57297;SDS011;43147;50.972;18.210;2022-09-14T00:35:11;16.00;;;14.40;;
57297;SDS011;43147;50.972;18.210;2022-09-14T00:37:36;17.50;;;15.20;;
57297;SDS011;43147;50.972;18.210;2022-09-14T00:40:03;17.00;;;15.40;;
57297;SDS011;43147;50.972;18.210;2022-09-14T00:42:30;16.40;;;14.80;;
57297;SDS011;43147;50.972;18.210;2022-09-14T00:45:07;17.30;;;15.60;;
57297;SDS011;43147;50.972;18.210;2022-09-14T00:47:42;18.00;;;15.60;;
57297;SDS011;43147;50.972;18.210;2022-09-14T00:50:09;17.00;;;15.50;;
57297;SDS011;43147;50.972;18.210;2022-09-14T00:52:36;17.00;;;15.40;;
57297;SDS011;43147;50.972;18.210;2022-09-14T00:55:07;18.00;;;16.10;;
57297;SDS011;43147;50.972;18.210;2022-09-14T00:57:42;18.70;;;16.90;;
57297;SDS011;43147;50.972;18.210;2022-09-14T01:00:10;18.90;;;16.80;;
57297;SDS011;43147;50.972;18.210;2022-09-14T01:02:38;18.70;;;16.50;;
57297;SDS011;43147;50.972;18.210;2022-09-14T01:05:05;18.30;;;16.60;;
57297;SDS011;43147;50.972;18.210;2022-09-14T01:13:34;23.00;;;16.90;;
57297;SDS011;43147;50.972;18.210;2022-09-14T01:16:08;20.90;;;18.80;;
57297;SDS011;43147;50.972;18.210;2022-09-14T01:21:20;19.00;;;17.00;;
57297;SDS011;43147;50.972;18.210;2022-09-14T01:26:40;22.30;;;20.00;;
57297;SDS011;43147;50.972;18.210;2022-09-14T01:29:25;22.40;;;20.00;;
57297;SDS011;43147;50.972;18.210;2022-09-14T01:32:01;21.80;;;19.50;;
57297;SDS011;43147;50.972;18.210;2022-09-14T01:34:31;20.00;;;18.00;;
57297;SDS011;43147;50.972;18.210;2022-09-14T01:37:44;20.90;;;18.70;;
57297;SDS011;43147;50.972;18.210;2022-09-14T01:39:51;19.10;;;17.20;;
57297;SDS011;43147;50.972;18.210;2022-09-14T01:42:19;19.70;;;17.90;;
57297;SDS011;43147;50.972;18.210;2022-09-14T01:44:48;20.80;;;18.70;;
57297;SDS011;43147;50.972;18.210;2022-09-14T01:47:19;20.20;;;18.20;;
57297;SDS011;43147;50.972;18.210;2022-09-14T01:49:58;22.20;;;17.60;;
57297;SDS011;43147;50.972;18.210;2022-09-14T01:52:45;23.30;;;18.30;;
57297;SDS011;43147;50.972;18.210;2022-09-14T01:55:15;20.90;;;18.70;;
57297;SDS011;43147;50.972;18.210;2022-09-14T01:57:46;20.40;;;18.20;;
57297;SDS011;43147;50.972;18.210;2022-09-14T02:00:15;21.90;;;19.60;;
57297;SDS011;43147;50.972;18.210;2022-09-14T02:02:54;22.00;;;17.80;;
57297;SDS011;43147;50.972;18.210;2022-09-14T02:07:52;20.00;;;17.70;;
57297;SDS011;43147;50.972;18.210;2022-09-14T02:10:18;20.00;;;17.70;;
57297;SDS011;43147;50.972;18.210;2022-09-14T02:12:44;19.20;;;17.20;;
57297;SDS011;43147;50.972;18.210;2022-09-14T02:15:10;19.70;;;16.90;;
57297;SDS011;43147;50.972;18.210;2022-09-14T02:17:37;20.80;;;17.70;;
57297;SDS011;43147;50.972;18.210;2022-09-14T02:20:04;18.30;;;16.40;;
57297;SDS011;43147;50.972;18.210;2022-09-14T02:22:31;25.00;;;18.20;;
57297;SDS011;43147;50.972;18.210;2022-09-14T02:24:57;19.40;;;17.40;;
57297;SDS011;43147;50.972;18.210;2022-09-14T02:27:23;22.50;;;17.50;;
57297;SDS011;43147;50.972;18.210;2022-09-14T02:29:49;19.10;;;17.10;;
57297;SDS011;43147;50.972;18.210;2022-09-14T02:32:25;21.60;;;17.90;;
57297;SDS011;43147;50.972;18.210;2022-09-14T02:38:03;20.00;;;18.10;;
57297;SDS011;43147;50.972;18.210;2022-09-14T02:40:54;20.40;;;17.50;;
57297;SDS011;43147;50.972;18.210;2022-09-14T02:51:19;19.90;;;17.90;;
57297;SDS011;43147;50.972;18.210;2022-09-14T02:53:50;19.20;;;17.40;;
